Time;durP1;ratioP1;P1;durP2;ratioP2;P2;SDS_P1;SDS_P2;PMS_P1;PMS_P2;Temp;Humidity;BMP_temperature;BMP_pressure;BME280_temperature;BME280_humidity;BME280_pressure;Samples;Min_cycle;Max_cycle;Signal;HPM_P1;HPM_P2
2022/03/03 00:00:10;;;;;;;67.97;42.70;;;;;;;;;;5039968;28;20128;-75
2022/03/03 00:02:37;;;;;;;65.90;42.63;;;;;;;;;;5052652;28;20052;-75
2022/03/03 00:05:04;;;;;;;62.42;37.85;;;;;;;;;;5027019;28;20041;-75
2022/03/03 00:07:30;;;;;;;69.95;42.88;;;;;;;;;;5044111;28;20068;-75
2022/03/03 00:09:56;;;;;;;65.18;41.75;;;;;;;;;;5047457;28;20059;-75
2022/03/03 00:12:22;;;;;;;67.22;42.60;;;;;;;;;;5034510;28;20135;-76
2022/03/03 00:14:48;;;;;;;68.97;42.70;;;;;;;;;;5061842;28;20044;-75
2022/03/03 00:17:14;;;;;;;68.63;42.00;;;;;;;;;;5037228;28;20094;-75
2022/03/03 00:19:43;;;;;;;64.13;40.75;;;;;;;;;;5025526;28;20394;-75
2022/03/03 00:22:09;;;;;;;67.30;42.50;;;;;;;;;;5067828;28;20389;-75
2022/03/03 00:24:36;;;;;;;71.70;43.55;;;;;;;;;;5053892;28;20082;-75
2022/03/03 00:27:02;;;;;;;67.53;42.47;;;;;;;;;;5053866;28;20061;-74
2022/03/03 00:29:28;;;;;;;66.57;41.75;;;;;;;;;;5033900;28;20045;-74
2022/03/03 00:31:54;;;;;;;67.55;41.67;;;;;;;;;;5070805;28;20474;-74
2022/03/03 00:34:20;;;;;;;68.20;42.85;;;;;;;;;;5034389;28;20509;-74
2022/03/03 00:36:46;;;;;;;63.00;42.92;;;;;;;;;;5043069;28;20055;-75
2022/03/03 00:39:13;;;;;;;65.40;41.35;;;;;;;;;;5047016;28;20061;-75
2022/03/03 00:41:39;;;;;;;63.60;40.58;;;;;;;;;;5054301;28;20066;-75
2022/03/03 00:44:06;;;;;;;63.85;41.72;;;;;;;;;;5057453;28;20040;-75
2022/03/03 00:46:33;;;;;;;64.68;41.35;;;;;;;;;;5069933;28;20044;-75
2022/03/03 00:48:59;;;;;;;67.90;41.70;;;;;;;;;;5038736;28;20049;-74
2022/03/03 00:51:25;;;;;;;63.72;40.95;;;;;;;;;;5065013;28;20044;-74
2022/03/03 00:53:51;;;;;;;68.63;42.03;;;;;;;;;;5056244;28;20048;-75
2022/03/03 00:56:18;;;;;;;65.13;39.47;;;;;;;;;;5038162;28;20033;-76
2022/03/03 00:58:45;;;;;;;62.70;40.40;;;;;;;;;;5068427;28;20370;-75
2022/03/03 01:01:11;;;;;;;67.35;41.40;;;;;;;;;;5057610;28;20044;-75
2022/03/03 01:03:37;;;;;;;63.10;41.50;;;;;;;;;;5053963;28;20084;-75
2022/03/03 01:06:03;;;;;;;62.15;41.10;;;;;;;;;;5050545;28;20144;-75
2022/03/03 01:08:29;;;;;;;66.93;41.75;;;;;;;;;;5059059;28;20558;-75
2022/03/03 01:10:56;;;;;;;64.65;41.25;;;;;;;;;;5074582;28;20607;-74
2022/03/03 01:13:22;;;;;;;66.32;40.78;;;;;;;;;;5043816;28;20486;-74
2022/03/03 01:15:48;;;;;;;61.53;40.40;;;;;;;;;;5023177;28;20045;-73
2022/03/03 01:18:15;;;;;;;64.32;40.25;;;;;;;;;;5044711;28;20037;-75
2022/03/03 01:20:41;;;;;;;65.68;41.00;;;;;;;;;;5051896;28;20036;-75
2022/03/03 01:23:07;;;;;;;61.60;39.50;;;;;;;;;;5065174;28;20044;-75
2022/03/03 01:25:33;;;;;;;64.30;41.33;;;;;;;;;;5025870;28;20084;-74
2022/03/03 01:27:59;;;;;;;64.97;41.33;;;;;;;;;;5021305;28;20059;-75
2022/03/03 01:30:26;;;;;;;68.35;42.28;;;;;;;;;;5045193;28;20045;-75
2022/03/03 01:32:52;;;;;;;62.80;40.22;;;;;;;;;;5075712;28;20044;-76
2022/03/03 01:35:18;;;;;;;64.45;40.30;;;;;;;;;;5045221;28;20044;-76
2022/03/03 01:37:44;;;;;;;64.72;41.45;;;;;;;;;;5070340;28;20495;-75
2022/03/03 01:40:11;;;;;;;66.45;41.92;;;;;;;;;;5074519;28;20481;-75
2022/03/03 01:42:37;;;;;;;65.90;41.03;;;;;;;;;;5074502;28;20198;-75
2022/03/03 01:45:03;;;;;;;65.35;40.70;;;;;;;;;;5022887;28;20051;-74
2022/03/03 01:47:30;;;;;;;66.13;40.90;;;;;;;;;;5038747;28;20036;-76
2022/03/03 01:49:57;;;;;;;64.15;41.38;;;;;;;;;;5072472;28;20099;-75
2022/03/03 01:52:23;;;;;;;60.80;38.78;;;;;;;;;;5074198;28;20048;-75
2022/03/03 01:54:49;;;;;;;68.38;41.30;;;;;;;;;;5042946;28;20103;-74
2022/03/03 01:57:17;;;;;;;66.20;39.72;;;;;;;;;;5054538;28;20044;-75
2022/03/03 01:59:43;;;;;;;63.45;39.78;;;;;;;;;;5048105;28;20513;-75
2022/03/03 02:02:10;;;;;;;64.18;39.15;;;;;;;;;;5073660;28;20080;-75
2022/03/03 02:04:40;;;;;;;60.55;39.42;;;;;;;;;;5041734;28;20053;-75
2022/03/03 02:07:07;;;;;;;61.90;39.42;;;;;;;;;;5039819;28;20055;-75
2022/03/03 02:09:34;;;;;;;62.45;40.38;;;;;;;;;;5050215;28;20045;-74
2022/03/03 02:12:00;;;;;;;61.63;39.50;;;;;;;;;;5052528;28;20076;-74
2022/03/03 02:14:26;;;;;;;65.65;40.50;;;;;;;;;;5051557;28;20106;-75
2022/03/03 02:16:52;;;;;;;66.95;40.65;;;;;;;;;;5051781;28;20059;-74
2022/03/03 02:19:19;;;;;;;62.13;39.60;;;;;;;;;;5052603;28;20367;-74
2022/03/03 02:21:46;;;;;;;64.72;40.03;;;;;;;;;;5042488;28;20080;-75
2022/03/03 02:24:13;;;;;;;59.25;38.33;;;;;;;;;;5044570;28;20072;-74
2022/03/03 02:26:40;;;;;;;59.30;39.50;;;;;;;;;;5030384;28;20045;-74
2022/03/03 02:29:07;;;;;;;60.55;39.47;;;;;;;;;;5048142;28;20076;-75
2022/03/03 02:31:33;;;;;;;61.47;39.97;;;;;;;;;;5032826;28;20048;-76
2022/03/03 02:34:00;;;;;;;63.30;39.30;;;;;;;;;;5026290;28;20107;-75
2022/03/03 02:36:27;;;;;;;61.30;39.95;;;;;;;;;;5040926;28;20040;-74
2022/03/03 02:38:55;;;;;;;61.40;39.53;;;;;;;;;;5046637;28;20041;-74
2022/03/03 02:41:21;;;;;;;63.10;40.40;;;;;;;;;;5045197;28;20136;-75
2022/03/03 02:43:48;;;;;;;61.20;38.53;;;;;;;;;;5032448;28;20041;-74
2022/03/03 02:46:14;;;;;;;66.72;39.63;;;;;;;;;;5047343;28;20052;-75
2022/03/03 02:48:40;;;;;;;58.75;38.40;;;;;;;;;;5045488;28;20116;-75
2022/03/03 02:51:07;;;;;;;59.15;39.03;;;;;;;;;;5034617;28;20514;-75
2022/03/03 02:53:33;;;;;;;59.13;38.90;;;;;;;;;;5049497;28;20156;-75
2022/03/03 02:55:59;;;;;;;59.22;38.70;;;;;;;;;;5034983;28;20037;-74
2022/03/03 02:58:25;;;;;;;64.72;39.55;;;;;;;;;;5035249;28;20482;-74
2022/03/03 03:00:52;;;;;;;62.10;39.70;;;;;;;;;;5044404;28;20033;-75
2022/03/03 03:03:19;;;;;;;63.78;40.17;;;;;;;;;;5048215;28;20049;-75
2022/03/03 03:05:45;;;;;;;59.65;38.33;;;;;;;;;;5028519;28;20410;-74
2022/03/03 03:08:11;;;;;;;63.10;39.47;;;;;;;;;;5046110;28;20059;-75
2022/03/03 03:10:38;;;;;;;59.53;38.08;;;;;;;;;;5041230;28;20043;-74
2022/03/03 03:13:05;;;;;;;60.72;37.92;;;;;;;;;;5022170;28;20542;-74
2022/03/03 03:15:31;;;;;;;62.65;39.45;;;;;;;;;;5045204;28;20399;-74
2022/03/03 03:18:08;;;;;;;58.30;38.10;;;;;;;;;;5049511;28;20107;-74
2022/03/03 03:20:34;;;;;;;62.90;38.85;;;;;;;;;;5050960;28;20067;-75
2022/03/03 03:23:01;;;;;;;62.22;38.90;;;;;;;;;;5052135;28;20102;-75
2022/03/03 03:25:27;;;;;;;54.33;36.45;;;;;;;;;;5035185;28;20045;-74
2022/03/03 03:27:54;;;;;;;56.00;37.88;;;;;;;;;;5018631;28;20051;-75
2022/03/03 03:30:21;;;;;;;54.08;35.33;;;;;;;;;;5068216;28;20079;-76
2022/03/03 03:32:47;;;;;;;60.75;37.22;;;;;;;;;;5050180;28;20047;-74
2022/03/03 03:35:14;;;;;;;58.85;37.83;;;;;;;;;;5037004;28;20040;-77
2022/03/03 03:37:40;;;;;;;60.03;38.17;;;;;;;;;;5055453;28;20075;-76
2022/03/03 03:40:07;;;;;;;59.00;39.00;;;;;;;;;;5034902;28;20124;-75
2022/03/03 03:42:33;;;;;;;59.92;36.92;;;;;;;;;;5038903;28;20036;-75
2022/03/03 03:45:00;;;;;;;59.25;38.70;;;;;;;;;;5039418;28;20138;-76
2022/03/03 03:47:26;;;;;;;57.53;37.22;;;;;;;;;;5045594;28;20045;-76
2022/03/03 03:49:52;;;;;;;56.75;35.88;;;;;;;;;;5048407;28;20076;-74
2022/03/03 03:52:18;;;;;;;55.33;37.17;;;;;;;;;;5035604;28;20045;-74
2022/03/03 03:54:44;;;;;;;57.28;36.35;;;;;;;;;;5024511;28;20044;-75
2022/03/03 03:57:10;;;;;;;53.10;35.55;;;;;;;;;;5068017;28;20047;-77
2022/03/03 03:59:36;;;;;;;56.67;36.03;;;;;;;;;;5023132;28;20049;-76
2022/03/03 04:02:03;;;;;;;52.40;34.47;;;;;;;;;;5039804;28;20044;-75
2022/03/03 04:04:29;;;;;;;52.15;34.67;;;;;;;;;;5063506;28;20259;-73
2022/03/03 04:06:56;;;;;;;55.72;34.70;;;;;;;;;;5063378;28;20040;-75
2022/03/03 04:09:22;;;;;;;55.58;36.40;;;;;;;;;;5058917;28;20041;-75
2022/03/03 04:11:48;;;;;;;50.67;35.30;;;;;;;;;;5034460;28;20105;-74
2022/03/03 04:14:17;;;;;;;55.25;34.88;;;;;;;;;;5024438;28;20029;-80
2022/03/03 04:17:11;;;;;;;52.03;35.35;;;;;;;;;;5044313;28;20049;-75
2022/03/03 04:23:17;;;;;;;56.28;36.25;;;;;;;;;;5030062;28;20049;-75
2022/03/03 04:25:44;;;;;;;53.00;34.95;;;;;;;;;;5006704;28;20037;-75
2022/03/03 04:28:10;;;;;;;57.17;36.50;;;;;;;;;;5021523;28;20049;-73
2022/03/03 04:30:36;;;;;;;56.80;36.78;;;;;;;;;;4992965;28;20132;-74
2022/03/03 04:33:02;;;;;;;56.28;36.30;;;;;;;;;;5023855;28;20101;-74
2022/03/03 04:35:28;;;;;;;55.65;36.17;;;;;;;;;;5012328;28;20145;-74
2022/03/03 04:37:54;;;;;;;56.85;36.55;;;;;;;;;;5026846;28;20042;-74
2022/03/03 04:40:21;;;;;;;56.53;36.85;;;;;;;;;;5015430;28;20056;-75
2022/03/03 04:42:47;;;;;;;56.83;36.28;;;;;;;;;;5025142;28;20046;-75
2022/03/03 04:45:13;;;;;;;55.33;37.05;;;;;;;;;;4995912;28;20046;-76
2022/03/03 04:47:39;;;;;;;59.55;38.30;;;;;;;;;;5024656;28;20056;-75
2022/03/03 04:50:06;;;;;;;56.20;36.97;;;;;;;;;;4994340;28;20045;-74
2022/03/03 04:52:33;;;;;;;60.97;36.70;;;;;;;;;;4994218;28;20235;-77
2022/03/03 04:54:59;;;;;;;53.35;35.53;;;;;;;;;;5023226;28;20522;-75
2022/03/03 04:57:25;;;;;;;60.67;38.35;;;;;;;;;;5014958;28;20567;-75
2022/03/03 04:59:51;;;;;;;55.90;35.55;;;;;;;;;;5008551;28;20054;-76
2022/03/03 05:02:17;;;;;;;54.28;34.03;;;;;;;;;;4993963;28;20038;-75
2022/03/03 05:04:43;;;;;;;55.00;35.35;;;;;;;;;;5008835;28;20053;-76
2022/03/03 05:07:09;;;;;;;51.47;35.67;;;;;;;;;;5021455;28;20045;-76
2022/03/03 05:09:36;;;;;;;57.15;35.45;;;;;;;;;;4996416;28;20553;-76
2022/03/03 05:12:02;;;;;;;50.60;34.13;;;;;;;;;;5022670;28;20045;-73
2022/03/03 05:14:29;;;;;;;56.63;35.90;;;;;;;;;;4976743;28;20526;-74
2022/03/03 05:16:56;;;;;;;53.40;34.80;;;;;;;;;;5013610;28;20200;-74
2022/03/03 05:19:22;;;;;;;51.67;34.17;;;;;;;;;;5014430;28;20054;-76
2022/03/03 05:21:48;;;;;;;51.55;34.55;;;;;;;;;;5009936;28;20085;-74
2022/03/03 05:24:15;;;;;;;51.85;34.20;;;;;;;;;;5021279;28;20069;-75
2022/03/03 05:26:41;;;;;;;52.47;34.33;;;;;;;;;;5025190;28;20128;-75
2022/03/03 05:29:07;;;;;;;52.72;33.65;;;;;;;;;;5006776;28;20056;-76
2022/03/03 05:31:34;;;;;;;51.35;34.40;;;;;;;;;;5016170;28;20057;-75
2022/03/03 05:34:00;;;;;;;51.83;34.65;;;;;;;;;;4998219;28;20080;-74
2022/03/03 05:36:26;;;;;;;52.17;35.17;;;;;;;;;;4989567;28;20046;-74
2022/03/03 05:38:56;;;;;;;54.08;35.10;;;;;;;;;;5002165;28;20136;-74
2022/03/03 05:41:22;;;;;;;53.30;33.67;;;;;;;;;;5030279;28;20041;-76
2022/03/03 05:43:48;;;;;;;50.53;34.10;;;;;;;;;;5031387;28;20051;-76
2022/03/03 05:46:15;;;;;;;53.15;36.03;;;;;;;;;;5020978;28;20041;-75
2022/03/03 05:48:41;;;;;;;51.13;34.42;;;;;;;;;;5022140;28;20077;-76
2022/03/03 05:51:08;;;;;;;50.55;33.90;;;;;;;;;;5039285;28;20033;-73
2022/03/03 05:53:34;;;;;;;49.97;33.75;;;;;;;;;;5007424;28;20500;-78
2022/03/03 05:56:04;;;;;;;50.30;34.25;;;;;;;;;;5016333;28;20395;-74
2022/03/03 05:58:42;;;;;;;54.92;35.05;;;;;;;;;;5031862;28;20136;-76
2022/03/03 06:01:09;;;;;;;53.15;34.50;;;;;;;;;;5032223;28;20045;-74
2022/03/03 06:03:36;;;;;;;50.50;33.25;;;;;;;;;;5023635;28;20077;-76
2022/03/03 06:06:08;;;;;;;54.45;36.58;;;;;;;;;;5015047;28;20041;-75
2022/03/03 06:08:41;;;;;;;51.42;34.80;;;;;;;;;;4999260;28;20111;-75
2022/03/03 06:11:10;;;;;;;54.88;35.42;;;;;;;;;;5002397;28;20533;-75
2022/03/03 06:13:39;;;;;;;52.38;34.50;;;;;;;;;;5003212;28;20045;-74
2022/03/03 06:16:05;;;;;;;50.25;33.90;;;;;;;;;;4998474;28;20144;-77
2022/03/03 06:18:32;;;;;;;50.13;33.20;;;;;;;;;;5039454;28;20179;-75
2022/03/03 06:20:59;;;;;;;52.53;33.70;;;;;;;;;;5051794;28;20056;-75
2022/03/03 06:23:25;;;;;;;55.10;33.17;;;;;;;;;;5051772;28;20048;-75
2022/03/03 06:25:57;;;;;;;49.92;32.65;;;;;;;;;;5037724;28;20081;-75
2022/03/03 06:28:23;;;;;;;49.58;33.70;;;;;;;;;;5068787;28;20481;-76
2022/03/03 06:30:49;;;;;;;52.65;34.08;;;;;;;;;;5036439;28;20048;-74
2022/03/03 06:33:15;;;;;;;51.10;32.97;;;;;;;;;;5052488;28;20045;-74
2022/03/03 06:35:41;;;;;;;49.05;32.55;;;;;;;;;;5019633;28;20040;-74
2022/03/03 06:38:07;;;;;;;47.80;32.95;;;;;;;;;;5050931;28;20052;-74
2022/03/03 06:40:34;;;;;;;50.60;33.63;;;;;;;;;;5018662;28;20048;-75
2022/03/03 06:43:00;;;;;;;51.58;33.85;;;;;;;;;;5003515;28;20091;-76
2022/03/03 06:45:27;;;;;;;48.40;33.90;;;;;;;;;;5019759;28;20489;-76
2022/03/03 06:47:54;;;;;;;49.58;32.25;;;;;;;;;;5045399;28;20047;-76
2022/03/03 06:50:20;;;;;;;52.70;34.75;;;;;;;;;;5046731;28;20111;-74
2022/03/03 06:52:51;;;;;;;57.63;36.47;;;;;;;;;;5035856;28;20077;-75
2022/03/03 06:55:21;;;;;;;54.10;35.45;;;;;;;;;;5036401;28;20055;-75
2022/03/03 06:57:49;;;;;;;51.10;35.72;;;;;;;;;;5035625;28;20468;-75
2022/03/03 07:00:18;;;;;;;78.22;50.47;;;;;;;;;;5068648;28;20113;-77
2022/03/03 07:02:46;;;;;;;54.47;36.65;;;;;;;;;;5051024;28;20063;-76
2022/03/03 07:05:13;;;;;;;61.50;38.38;;;;;;;;;;5032778;28;20094;-74
2022/03/03 07:07:40;;;;;;;51.28;38.30;;;;;;;;;;5063061;28;20121;-75
2022/03/03 07:10:06;;;;;;;51.55;35.42;;;;;;;;;;5071151;28;20137;-74
2022/03/03 07:12:33;;;;;;;47.88;33.63;;;;;;;;;;5038115;28;20051;-74
2022/03/03 07:14:59;;;;;;;45.80;33.15;;;;;;;;;;5055629;28;20048;-77
2022/03/03 07:17:45;;;;;;;44.95;30.77;;;;;;;;;;5066669;28;20051;-75
2022/03/03 07:20:16;;;;;;;49.38;31.20;;;;;;;;;;5066804;28;20048;-75
2022/03/03 07:23:02;;;;;;;44.08;30.70;;;;;;;;;;5070786;28;20079;-76
2022/03/03 07:25:35;;;;;;;46.58;30.02;;;;;;;;;;5060279;28;20067;-75
2022/03/03 07:28:02;;;;;;;41.92;30.52;;;;;;;;;;5072975;28;20052;-75
2022/03/03 07:30:30;;;;;;;43.58;31.40;;;;;;;;;;5024381;28;20041;-75
2022/03/03 07:33:00;;;;;;;46.30;31.67;;;;;;;;;;5036001;28;20095;-75
2022/03/03 07:35:26;;;;;;;42.10;31.75;;;;;;;;;;5018133;28;20041;-75
2022/03/03 07:37:54;;;;;;;43.75;31.88;;;;;;;;;;5033862;28;20044;-75
2022/03/03 07:40:20;;;;;;;40.08;30.73;;;;;;;;;;5034972;28;20130;-77
2022/03/03 07:42:46;;;;;;;39.90;31.00;;;;;;;;;;5018650;28;20056;-75
2022/03/03 07:45:12;;;;;;;39.55;31.23;;;;;;;;;;5018831;28;20037;-75
2022/03/03 07:47:39;;;;;;;40.42;29.80;;;;;;;;;;5052989;28;20055;-76
2022/03/03 07:50:06;;;;;;;35.80;28.27;;;;;;;;;;5035355;28;20083;-76
2022/03/03 07:52:34;;;;;;;36.30;29.75;;;;;;;;;;5052738;28;20360;-76
2022/03/03 07:55:00;;;;;;;38.47;29.45;;;;;;;;;;5052834;28;20087;-77
2022/03/03 07:57:32;;;;;;;40.10;31.50;;;;;;;;;;5034848;28;20052;-78
2022/03/03 08:00:03;;;;;;;43.40;31.33;;;;;;;;;;5052923;28;20045;-77
2022/03/03 08:02:30;;;;;;;38.92;30.15;;;;;;;;;;5052807;28;20056;-77
2022/03/03 08:04:56;;;;;;;40.03;29.27;;;;;;;;;;5034917;28;20072;-77
2022/03/03 08:07:22;;;;;;;36.15;30.08;;;;;;;;;;5035158;28;20043;-75
2022/03/03 08:09:50;;;;;;;39.88;29.83;;;;;;;;;;5018316;28;20053;-74
2022/03/03 08:12:16;;;;;;;39.35;30.42;;;;;;;;;;5052562;28;20091;-74
2022/03/03 08:14:43;;;;;;;42.33;29.95;;;;;;;;;;5052754;28;20048;-78
2022/03/03 08:17:12;;;;;;;39.50;30.13;;;;;;;;;;5035002;28;20178;-75
2022/03/03 08:19:39;;;;;;;38.15;30.48;;;;;;;;;;5052641;28;20080;-77
2022/03/03 08:22:05;;;;;;;37.70;29.48;;;;;;;;;;5052709;28;20049;-74
2022/03/03 08:24:35;;;;;;;41.92;31.40;;;;;;;;;;5052389;28;20048;-77
2022/03/03 08:27:01;;;;;;;39.20;29.90;;;;;;;;;;5052576;28;20061;-75
2022/03/03 08:29:28;;;;;;;38.78;29.77;;;;;;;;;;5052373;28;20048;-74
2022/03/03 08:31:55;;;;;;;39.55;29.77;;;;;;;;;;5034887;28;20127;-74
2022/03/03 08:34:42;;;;;;;38.05;30.80;;;;;;;;;;5052508;28;20478;-74
2022/03/03 08:37:11;;;;;;;39.80;29.98;;;;;;;;;;5034430;28;20049;-76
2022/03/03 08:39:38;;;;;;;39.72;29.27;;;;;;;;;;5052470;28;20049;-75
2022/03/03 08:42:08;;;;;;;37.97;28.58;;;;;;;;;;5052404;28;20037;-78
2022/03/03 08:44:35;;;;;;;37.47;28.63;;;;;;;;;;5052483;28;20045;-75
2022/03/03 08:47:03;;;;;;;44.38;30.55;;;;;;;;;;5034146;28;20490;-74
2022/03/03 08:49:31;;;;;;;39.45;29.30;;;;;;;;;;5018281;28;20084;-75
2022/03/03 08:51:57;;;;;;;39.47;29.67;;;;;;;;;;5052139;28;20088;-77
2022/03/03 08:54:24;;;;;;;39.03;29.77;;;;;;;;;;5034684;28;20045;-76
2022/03/03 08:56:50;;;;;;;40.45;29.48;;;;;;;;;;5052430;28;20056;-75
2022/03/03 08:59:16;;;;;;;37.40;28.73;;;;;;;;;;5052227;28;20122;-74
2022/03/03 09:01:42;;;;;;;35.83;27.42;;;;;;;;;;5033966;28;20435;-74
2022/03/03 09:04:08;;;;;;;37.88;28.63;;;;;;;;;;5054449;28;20037;-77
2022/03/03 09:06:34;;;;;;;37.47;27.67;;;;;;;;;;5021946;28;20131;-76
2022/03/03 09:09:00;;;;;;;34.53;26.73;;;;;;;;;;5038186;28;20087;-78
2022/03/03 09:11:27;;;;;;;38.65;27.08;;;;;;;;;;5038530;28;20045;-75
2022/03/03 09:13:53;;;;;;;36.15;26.42;;;;;;;;;;5038270;28;20053;-77
2022/03/03 09:16:19;;;;;;;35.47;27.02;;;;;;;;;;5055827;28;20056;-75
2022/03/03 09:18:46;;;;;;;34.60;25.85;;;;;;;;;;5037861;28;20576;-76
2022/03/03 09:21:12;;;;;;;36.63;27.52;;;;;;;;;;5038076;28;20047;-76
2022/03/03 09:23:38;;;;;;;34.05;26.55;;;;;;;;;;5038064;28;20367;-75
2022/03/03 09:26:05;;;;;;;33.28;25.17;;;;;;;;;;5037881;28;20080;-76
2022/03/03 09:28:31;;;;;;;34.88;25.80;;;;;;;;;;5037782;28;20095;-77
2022/03/03 09:30:57;;;;;;;32.47;24.73;;;;;;;;;;5055425;28;20084;-77
2022/03/03 09:33:24;;;;;;;31.05;24.33;;;;;;;;;;5055374;28;20474;-74
2022/03/03 09:35:51;;;;;;;34.30;25.90;;;;;;;;;;5021297;28;20045;-77
2022/03/03 09:38:17;;;;;;;33.05;23.63;;;;;;;;;;5037668;28;20386;-76
2022/03/03 09:40:43;;;;;;;32.78;25.10;;;;;;;;;;5055515;28;20080;-74
2022/03/03 09:43:10;;;;;;;31.58;24.25;;;;;;;;;;5021432;28;20076;-77
2022/03/03 09:45:36;;;;;;;33.47;24.27;;;;;;;;;;5037820;28;20049;-75
2022/03/03 09:48:05;;;;;;;32.50;25.13;;;;;;;;;;5037609;28;20140;-76
2022/03/03 09:50:32;;;;;;;31.88;22.65;;;;;;;;;;5037726;28;20482;-74
2022/03/03 09:52:58;;;;;;;31.10;23.77;;;;;;;;;;5037396;28;20099;-75
2022/03/03 09:55:24;;;;;;;31.85;23.58;;;;;;;;;;5055295;28;20182;-77
2022/03/03 09:57:51;;;;;;;28.23;21.38;;;;;;;;;;5054965;28;20542;-77
2022/03/03 10:00:18;;;;;;;30.38;22.98;;;;;;;;;;5054998;28;20130;-77
2022/03/03 10:03:08;;;;;;;29.67;22.50;;;;;;;;;;5054700;28;20191;-76
2022/03/03 10:05:47;;;;;;;28.48;21.52;;;;;;;;;;5055053;28;20056;-74
2022/03/03 10:08:23;;;;;;;29.92;21.60;;;;;;;;;;5037515;28;20087;-76
2022/03/03 10:10:54;;;;;;;26.13;21.13;;;;;;;;;;5037021;28;20086;-77
2022/03/03 10:13:20;;;;;;;24.83;18.42;;;;;;;;;;5054812;28;20047;-75
2022/03/03 10:15:57;;;;;;;29.08;20.17;;;;;;;;;;5036972;28;20053;-78
2022/03/03 10:18:24;;;;;;;26.30;20.38;;;;;;;;;;5036881;28;20041;-76
2022/03/03 10:20:52;;;;;;;26.48;20.17;;;;;;;;;;5036854;28;20044;-75
2022/03/03 10:23:19;;;;;;;27.63;20.45;;;;;;;;;;5054467;28;20056;-76
2022/03/03 10:25:46;;;;;;;25.10;19.48;;;;;;;;;;5054213;28;20501;-75
2022/03/03 10:28:14;;;;;;;27.02;19.95;;;;;;;;;;5036971;28;20120;-75
2022/03/03 10:30:58;;;;;;;23.45;19.45;;;;;;;;;;5054566;28;20041;-76
2022/03/03 10:33:25;;;;;;;23.73;17.40;;;;;;;;;;5036742;28;20067;-77
2022/03/03 10:35:58;;;;;;;27.48;19.17;;;;;;;;;;5054361;28;20053;-74
2022/03/03 10:38:24;;;;;;;25.38;18.75;;;;;;;;;;5036851;28;20509;-78
2022/03/03 10:40:50;;;;;;;24.08;18.65;;;;;;;;;;5054293;28;20504;-75
2022/03/03 10:43:16;;;;;;;26.42;19.70;;;;;;;;;;5036704;28;20052;-76
2022/03/03 10:45:56;;;;;;;26.48;19.55;;;;;;;;;;5054320;28;20045;-75
2022/03/03 10:48:23;;;;;;;25.58;18.75;;;;;;;;;;5054111;28;20053;-77
2022/03/03 10:50:50;;;;;;;24.23;19.35;;;;;;;;;;5036350;28;20036;-74
2022/03/03 10:53:19;;;;;;;22.65;18.55;;;;;;;;;;5036614;28;20593;-76
2022/03/03 10:56:02;;;;;;;24.65;18.60;;;;;;;;;;5054222;28;20045;-78
2022/03/03 10:58:48;;;;;;;22.88;17.90;;;;;;;;;;5053970;28;20043;-77
2022/03/03 11:01:15;;;;;;;23.80;18.08;;;;;;;;;;5054066;28;20041;-75
2022/03/03 11:03:44;;;;;;;23.15;16.48;;;;;;;;;;5053822;28;20041;-77
2022/03/03 11:06:10;;;;;;;22.15;16.80;;;;;;;;;;5053690;28;20037;-75
2022/03/03 11:08:37;;;;;;;22.75;18.02;;;;;;;;;;5051910;28;20070;-76
2022/03/03 11:11:03;;;;;;;24.88;19.48;;;;;;;;;;5055600;28;20616;-76
2022/03/03 11:13:29;;;;;;;24.73;17.88;;;;;;;;;;5052390;28;20524;-74
2022/03/03 11:15:56;;;;;;;24.00;18.58;;;;;;;;;;5053773;28;20501;-77
2022/03/03 11:18:22;;;;;;;23.85;17.40;;;;;;;;;;5053798;28;20048;-74
2022/03/03 11:20:49;;;;;;;25.35;18.15;;;;;;;;;;5035804;28;20045;-75
2022/03/03 11:23:15;;;;;;;24.83;19.50;;;;;;;;;;5035922;28;20549;-75
2022/03/03 11:25:42;;;;;;;23.10;19.20;;;;;;;;;;5051915;28;20381;-76
2022/03/03 11:28:09;;;;;;;24.98;17.83;;;;;;;;;;5051931;28;20669;-75
2022/03/03 11:30:36;;;;;;;23.80;18.20;;;;;;;;;;5052255;28;20394;-76
2022/03/03 11:33:30;;;;;;;21.13;16.23;;;;;;;;;;5035794;28;20056;-77
2022/03/03 11:36:01;;;;;;;23.33;17.70;;;;;;;;;;5053330;28;20045;-76
2022/03/03 11:38:28;;;;;;;23.23;17.98;;;;;;;;;;5051885;28;20585;-77
2022/03/03 11:40:56;;;;;;;22.85;17.98;;;;;;;;;;5053284;28;20041;-77
2022/03/03 11:43:23;;;;;;;21.90;17.23;;;;;;;;;;5035591;28;20045;-74
2022/03/03 11:45:50;;;;;;;22.77;18.58;;;;;;;;;;5053203;28;20041;-76
2022/03/03 11:48:19;;;;;;;22.40;17.70;;;;;;;;;;5053058;28;20071;-76
2022/03/03 11:50:45;;;;;;;26.77;19.10;;;;;;;;;;5052086;28;20076;-76
2022/03/03 11:53:11;;;;;;;28.08;20.85;;;;;;;;;;5002052;28;20132;-75
2022/03/03 11:56:10;;;;;;;28.20;21.33;;;;;;;;;;5051830;28;20390;-75
2022/03/03 11:58:40;;;;;;;26.02;21.85;;;;;;;;;;4986317;28;20147;-74
2022/03/03 12:01:15;;;;;;;29.55;21.02;;;;;;;;;;5056749;28;20047;-77
2022/03/03 12:04:01;;;;;;;29.50;21.80;;;;;;;;;;5055374;28;20098;-74
2022/03/03 12:06:37;;;;;;;27.25;19.63;;;;;;;;;;5053215;28;20127;-75
2022/03/03 12:09:36;;;;;;;28.85;19.23;;;;;;;;;;5053735;28;20092;-77
2022/03/03 12:12:08;;;;;;;25.58;19.92;;;;;;;;;;4982900;28;20057;-75
2022/03/03 12:14:39;;;;;;;25.50;18.50;;;;;;;;;;5052535;28;20133;-75
2022/03/03 12:17:05;;;;;;;;;;;;;;;;;;5051805;28;20048;-77
2022/03/03 12:19:38;;;;;;;26.08;19.25;;;;;;;;;;5034728;28;19917;-75
2022/03/03 12:22:04;;;;;;;23.52;18.83;;;;;;;;;;5051140;28;20064;-76
2022/03/03 12:24:37;;;;;;;28.00;18.45;;;;;;;;;;5018489;28;20120;-76
2022/03/03 12:27:07;;;;;;;18.63;14.63;;;;;;;;;;5052339;28;20065;-78
2022/03/03 12:29:36;;;;;;;18.95;14.18;;;;;;;;;;5052527;28;20045;-75
2022/03/03 12:32:20;;;;;;;19.85;14.23;;;;;;;;;;5052276;28;20486;-76
2022/03/03 12:34:47;;;;;;;20.10;14.38;;;;;;;;;;5052356;28;20041;-77
2022/03/03 12:37:13;;;;;;;19.63;15.88;;;;;;;;;;5052050;28;20440;-75
2022/03/03 12:39:47;;;;;;;20.85;14.60;;;;;;;;;;5050963;28;20040;-75
2022/03/03 12:42:13;;;;;;;17.60;12.70;;;;;;;;;;5052317;28;20394;-75
2022/03/03 12:44:39;;;;;;;17.67;13.77;;;;;;;;;;5052347;28;20131;-76
2022/03/03 12:47:07;;;;;;;19.27;14.27;;;;;;;;;;5052269;28;20041;-75
2022/03/03 12:49:39;;;;;;;17.67;14.07;;;;;;;;;;5052384;28;20057;-76
2022/03/03 12:52:06;;;;;;;19.05;15.20;;;;;;;;;;5052540;28;20068;-76
2022/03/03 12:54:32;;;;;;;21.67;16.05;;;;;;;;;;5052187;28;20041;-75
2022/03/03 12:56:59;;;;;;;20.98;14.80;;;;;;;;;;5018195;28;20049;-75
2022/03/03 12:59:26;;;;;;;24.33;16.63;;;;;;;;;;5052232;28;20044;-77
2022/03/03 13:01:52;;;;;;;18.73;14.73;;;;;;;;;;5034324;28;20132;-75
2022/03/03 13:04:22;;;;;;;19.63;15.68;;;;;;;;;;5052342;28;20074;-76
2022/03/03 13:06:48;;;;;;;18.90;14.43;;;;;;;;;;5052239;28;20044;-76
2022/03/03 13:09:15;;;;;;;18.80;13.52;;;;;;;;;;5052220;28;20283;-76
2022/03/03 13:11:41;;;;;;;18.20;13.65;;;;;;;;;;5051090;28;20409;-76
2022/03/03 13:14:07;;;;;;;20.38;14.23;;;;;;;;;;5051181;28;20084;-77
2022/03/03 13:16:38;;;;;;;18.70;14.50;;;;;;;;;;5051990;28;20048;-75
2022/03/03 13:19:05;;;;;;;20.00;15.30;;;;;;;;;;5052161;28;20041;-76
2022/03/03 13:21:33;;;;;;;18.65;14.77;;;;;;;;;;5052053;28;20037;-76
2022/03/03 13:24:01;;;;;;;16.80;13.05;;;;;;;;;;5017858;28;20045;-76
2022/03/03 13:26:30;;;;;;;17.75;12.88;;;;;;;;;;5047317;28;20049;-76
2022/03/03 13:29:00;;;;;;;17.75;14.50;;;;;;;;;;5031695;28;20422;-75
2022/03/03 13:31:28;;;;;;;17.47;13.77;;;;;;;;;;5032190;28;20103;-76
2022/03/03 13:34:02;;;;;;;17.02;11.88;;;;;;;;;;5014499;28;20292;-76
2022/03/03 13:36:39;;;;;;;16.90;12.75;;;;;;;;;;5030827;28;20064;-75
2022/03/03 13:39:21;;;;;;;18.70;13.73;;;;;;;;;;5047616;28;20068;-77
2022/03/03 13:41:47;;;;;;;17.92;12.57;;;;;;;;;;5030740;28;20092;-75
2022/03/03 13:44:15;;;;;;;19.23;14.25;;;;;;;;;;5030800;28;20041;-76
2022/03/03 13:46:42;;;;;;;19.20;13.85;;;;;;;;;;5032097;28;20081;-77
2022/03/03 13:49:18;;;;;;;18.55;13.77;;;;;;;;;;5032547;28;20076;-75
2022/03/03 13:52:03;;;;;;;18.05;12.57;;;;;;;;;;5017715;28;20052;-76
2022/03/03 13:54:39;;;;;;;15.13;11.93;;;;;;;;;;5035489;28;20037;-76
2022/03/03 13:57:05;;;;;;;16.35;11.23;;;;;;;;;;5035477;28;20041;-75
2022/03/03 13:59:51;;;;;;;16.20;12.05;;;;;;;;;;5050952;28;20057;-76
2022/03/03 14:02:18;;;;;;;16.35;11.18;;;;;;;;;;5034107;28;20398;-74
2022/03/03 14:04:56;;;;;;;16.92;10.60;;;;;;;;;;5035048;28;20037;-76
2022/03/03 14:07:30;;;;;;;16.60;11.90;;;;;;;;;;5017521;28;20049;-75
2022/03/03 14:10:00;;;;;;;15.48;10.32;;;;;;;;;;5034072;28;20037;-75
2022/03/03 14:12:26;;;;;;;15.98;10.35;;;;;;;;;;5017448;28;20053;-76
2022/03/03 14:14:52;;;;;;;15.13;10.55;;;;;;;;;;5034854;28;20479;-77
2022/03/03 14:17:18;;;;;;;15.35;10.90;;;;;;;;;;5034935;28;20037;-75
2022/03/03 14:19:46;;;;;;;14.13;10.75;;;;;;;;;;5034985;28;20111;-76
2022/03/03 14:22:16;;;;;;;15.88;11.15;;;;;;;;;;5034665;28;20391;-74
2022/03/03 14:24:42;;;;;;;16.75;10.70;;;;;;;;;;5033435;28;20045;-77
2022/03/03 14:27:08;;;;;;;14.60;10.10;;;;;;;;;;5046115;28;20372;-76